createdAt,value
2019-03-29T00:00:01.126Z,18.40
2019-03-29T00:01:01.128Z,18.60
2019-03-29T00:02:01.075Z,19.00
2019-03-29T00:03:01.096Z,18.60
2019-03-29T00:04:01.206Z,19.20
2019-03-29T00:05:01.047Z,18.80
2019-03-29T00:06:01.112Z,18.40
2019-03-29T00:07:01.017Z,19.70
2019-03-29T00:08:01.138Z,19.30
2019-03-29T00:09:01.979Z,19.20
2019-03-29T00:10:00.993Z,18.50
2019-03-29T00:11:00.975Z,19.20
2019-03-29T00:12:00.967Z,19.90
2019-03-29T00:13:00.957Z,19.10
2019-03-29T00:14:00.972Z,19.30
2019-03-29T00:15:00.936Z,19.30
2019-03-29T00:16:00.922Z,18.80
2019-03-29T00:17:00.907Z,19.20
2019-03-29T00:18:00.899Z,19.60
2019-03-29T00:19:01.338Z,19.30
2019-03-29T00:20:00.902Z,19.80
2019-03-29T00:21:00.873Z,19.90
2019-03-29T00:22:00.853Z,20.20
2019-03-29T00:23:00.896Z,18.90
2019-03-29T00:24:06.513Z,19.50
2019-03-29T00:25:01.830Z,19.70
2019-03-29T00:26:00.823Z,19.40
2019-03-29T00:27:00.794Z,19.70
2019-03-29T00:28:00.802Z,19.70
2019-03-29T00:29:00.794Z,19.50
2019-03-29T00:30:00.805Z,20.10
2019-03-29T00:31:00.760Z,20.60
2019-03-29T00:32:00.738Z,19.90
2019-03-29T00:33:00.775Z,20.50
2019-03-29T00:34:00.747Z,19.10
2019-03-29T00:35:00.706Z,19.50
2019-03-29T00:36:00.693Z,20.20
2019-03-29T00:37:00.690Z,21.00
2019-03-29T00:38:00.669Z,19.70
2019-03-29T00:39:00.700Z,19.10
2019-03-29T00:40:00.648Z,21.20
2019-03-29T00:41:00.640Z,21.10
2019-03-29T00:42:00.629Z,21.60
2019-03-29T00:43:00.624Z,22.10
2019-03-29T00:44:01.083Z,21.50
2019-03-29T00:45:00.592Z,21.40
2019-03-29T00:46:00.583Z,21.50
2019-03-29T00:47:00.577Z,20.90
2019-03-29T00:48:00.576Z,20.90
2019-03-29T00:49:00.580Z,20.10
2019-03-29T00:50:00.547Z,20.70
2019-03-29T00:51:00.526Z,21.50
2019-03-29T00:52:00.521Z,21.00
2019-03-29T00:53:00.499Z,20.90
2019-03-29T00:54:01.907Z,20.90
2019-03-29T00:55:00.530Z,21.40
2019-03-29T00:56:00.473Z,20.70
2019-03-29T00:57:00.464Z,21.50
2019-03-29T00:58:00.445Z,22.30
2019-03-29T00:59:00.453Z,23.40
2019-03-29T01:00:00.423Z,23.70
2019-03-29T01:01:00.410Z,22.40
2019-03-29T01:02:00.397Z,22.70
2019-03-29T01:03:00.404Z,22.30
2019-03-29T01:04:00.411Z,22.40
2019-03-29T01:05:00.368Z,21.70
2019-03-29T01:06:00.355Z,22.70
2019-03-29T01:07:00.348Z,22.10
2019-03-29T01:08:07.694Z,21.10
2019-03-29T01:09:01.360Z,23.70
2019-03-29T01:10:00.482Z,23.60
2019-03-29T01:11:02.312Z,24.80
2019-03-29T01:12:00.290Z,24.40
2019-03-29T01:13:00.273Z,25.10
2019-03-29T01:14:00.273Z,23.80
2019-03-29T01:15:00.391Z,24.80
2019-03-29T01:16:00.259Z,23.30
2019-03-29T01:17:00.227Z,24.10
2019-03-29T01:18:00.226Z,24.80
2019-03-29T01:19:00.219Z,23.90
2019-03-29T01:20:00.369Z,23.60
2019-03-29T01:21:00.187Z,23.40
2019-03-29T01:22:00.189Z,24.10
2019-03-29T01:23:00.171Z,22.60
2019-03-29T01:24:00.154Z,23.50
2019-03-29T01:25:00.224Z,22.80
2019-03-29T01:26:00.953Z,23.00
2019-03-29T01:27:00.125Z,22.20
2019-03-29T01:28:00.112Z,22.40
2019-03-29T01:29:00.095Z,23.10
2019-03-29T01:30:00.273Z,22.70
2019-03-29T01:31:00.077Z,22.60
2019-03-29T01:32:00.062Z,22.70
2019-03-29T01:33:00.059Z,22.60
2019-03-29T01:34:00.045Z,22.50
2019-03-29T01:35:00.055Z,22.40
2019-03-29T01:36:00.018Z,22.60
2019-03-29T01:37:00.008Z,22.30
2019-03-29T01:37:59.999Z,22.70
2019-03-29T01:38:59.992Z,24.50
2019-03-29T01:40:00.002Z,22.30
2019-03-29T01:41:00.407Z,23.40
2019-03-29T01:41:59.951Z,23.10
2019-03-29T01:42:59.941Z,22.80
2019-03-29T01:43:59.938Z,22.90
2019-03-29T01:44:59.937Z,21.90
2019-03-29T01:45:59.909Z,22.40
2019-03-29T01:46:59.906Z,22.70
2019-03-29T01:47:59.890Z,22.50
2019-03-29T01:48:59.874Z,23.00
2019-03-29T01:49:59.879Z,22.90
2019-03-29T01:50:59.851Z,23.30
2019-03-29T01:51:59.838Z,22.20
2019-03-29T01:52:59.922Z,21.40
2019-03-29T01:53:59.823Z,21.80
2019-03-29T01:54:59.818Z,22.70
2019-03-29T01:55:59.811Z,23.50
2019-03-29T01:56:59.781Z,22.60
2019-03-29T01:57:59.769Z,22.40
2019-03-29T01:58:59.764Z,23.40
2019-03-29T01:59:59.770Z,23.10
2019-03-29T02:00:59.743Z,23.00
2019-03-29T02:01:59.723Z,24.20
2019-03-29T02:02:59.715Z,24.50
2019-03-29T02:03:59.709Z,23.90
2019-03-29T02:05:00.226Z,23.60
2019-03-29T02:05:59.688Z,24.20
2019-03-29T02:06:59.668Z,23.10
2019-03-29T02:07:59.657Z,23.30
2019-03-29T02:08:59.645Z,23.50
2019-03-29T02:09:59.749Z,23.90
2019-03-29T02:10:59.624Z,24.60
2019-03-29T02:11:59.614Z,25.60
2019-03-29T02:12:59.858Z,24.80
2019-03-29T02:13:59.590Z,25.10
2019-03-29T02:14:59.601Z,24.30
2019-03-29T02:15:59.576Z,24.30
2019-03-29T02:16:59.557Z,25.50
2019-03-29T02:17:59.554Z,23.90
2019-03-29T02:18:59.539Z,24.20
2019-03-29T02:19:59.544Z,23.90
2019-03-29T02:20:59.514Z,24.40
2019-03-29T02:21:59.502Z,24.90
2019-03-29T02:22:59.489Z,24.50
2019-03-29T02:23:59.477Z,24.50
2019-03-29T02:24:59.490Z,24.40
2019-03-29T02:25:59.454Z,25.60
2019-03-29T02:27:00.211Z,25.20
2019-03-29T02:27:59.428Z,25.50
2019-03-29T02:28:59.441Z,24.70
2019-03-29T02:29:59.446Z,24.10
2019-03-29T02:30:59.823Z,23.90
2019-03-29T02:31:59.390Z,24.10
2019-03-29T02:32:59.378Z,23.50
2019-03-29T02:33:59.377Z,24.60
2019-03-29T02:34:59.380Z,23.60
2019-03-29T02:35:59.349Z,23.20
2019-03-29T02:37:00.797Z,24.30
2019-03-29T02:37:59.327Z,24.10
2019-03-29T02:38:59.471Z,23.80
2019-03-29T02:39:59.311Z,22.10
2019-03-29T02:40:59.291Z,22.70
2019-03-29T02:41:59.273Z,22.00
2019-03-29T02:42:59.306Z,23.20
2019-03-29T02:43:59.249Z,23.10
2019-03-29T02:44:59.322Z,23.60
2019-03-29T02:45:59.229Z,22.60
2019-03-29T02:46:59.222Z,23.30
2019-03-29T02:47:59.203Z,22.20
2019-03-29T02:48:59.197Z,22.10
2019-03-29T02:49:59.209Z,22.00
2019-03-29T02:50:59.179Z,21.90
2019-03-29T02:51:59.173Z,22.20
2019-03-29T02:52:59.156Z,23.30
2019-03-29T02:53:59.140Z,20.70
2019-03-29T02:54:59.150Z,22.30
2019-03-29T02:55:59.125Z,21.50
2019-03-29T02:56:59.117Z,21.10
2019-03-29T02:57:59.096Z,21.90
2019-03-29T02:58:59.081Z,20.20
2019-03-29T02:59:59.108Z,21.80
2019-03-29T03:00:59.071Z,21.60
2019-03-29T03:01:59.059Z,21.60
2019-03-29T03:02:59.065Z,21.40
2019-03-29T03:03:59.029Z,21.10
2019-03-29T03:04:59.033Z,22.00
2019-03-29T03:05:59.009Z,21.20
2019-03-29T03:06:58.994Z,21.10
2019-03-29T03:07:58.989Z,20.80
2019-03-29T03:09:12.270Z,21.30
2019-03-29T03:09:59.971Z,20.20
2019-03-29T03:10:58.945Z,21.00
2019-03-29T03:11:58.939Z,21.40
2019-03-29T03:12:58.929Z,22.00
2019-03-29T03:13:58.923Z,21.70
2019-03-29T03:14:58.953Z,20.80
2019-03-29T03:15:58.885Z,20.70
2019-03-29T03:16:58.887Z,20.80
2019-03-29T03:17:58.869Z,21.70
2019-03-29T03:18:58.861Z,20.70
2019-03-29T03:19:58.869Z,20.80
2019-03-29T03:20:58.858Z,20.90
2019-03-29T03:21:58.823Z,22.10
2019-03-29T03:22:58.806Z,23.20
2019-03-29T03:23:58.812Z,22.40
2019-03-29T03:24:58.823Z,21.90
2019-03-29T03:25:58.787Z,22.00
2019-03-29T03:26:58.764Z,21.70
2019-03-29T03:27:58.754Z,22.50
2019-03-29T03:28:58.786Z,21.60
2019-03-29T03:29:58.744Z,22.20
2019-03-29T03:30:58.724Z,22.60
2019-03-29T03:31:58.717Z,22.40
2019-03-29T03:32:58.721Z,22.70
2019-03-29T03:33:58.707Z,22.50
2019-03-29T03:34:58.687Z,22.10
2019-03-29T03:35:58.684Z,21.40
2019-03-29T03:36:58.655Z,22.20
2019-03-29T03:37:58.648Z,22.10
2019-03-29T03:38:58.637Z,23.10
2019-03-29T03:39:58.623Z,21.80
2019-03-29T03:40:58.633Z,22.90
2019-03-29T03:41:58.603Z,24.40
2019-03-29T03:42:58.598Z,25.70
2019-03-29T03:43:58.575Z,25.00
2019-03-29T03:44:58.568Z,23.90
2019-03-29T03:45:58.573Z,24.80
2019-03-29T03:46:58.552Z,26.20
2019-03-29T03:47:58.533Z,26.80
2019-03-29T03:48:58.522Z,25.80
2019-03-29T03:50:00.978Z,27.50
2019-03-29T03:50:58.525Z,26.40
2019-03-29T03:51:58.493Z,27.70
2019-03-29T03:52:58.532Z,26.70
2019-03-29T03:53:58.465Z,26.70
2019-03-29T03:54:58.449Z,25.60
2019-03-29T03:55:58.473Z,26.40
2019-03-29T03:56:58.428Z,26.00
2019-03-29T03:57:58.437Z,26.30
2019-03-29T03:58:58.409Z,26.90
2019-03-29T03:59:58.400Z,25.00
2019-03-29T04:00:58.403Z,26.10
2019-03-29T04:01:58.372Z,26.10
2019-03-29T04:02:58.367Z,26.50
2019-03-29T04:03:58.368Z,25.60
2019-03-29T04:04:58.339Z,25.80
2019-03-29T04:05:58.345Z,26.90
2019-03-29T04:06:58.315Z,26.60
2019-03-29T04:07:58.355Z,25.50
2019-03-29T04:08:58.307Z,25.40
2019-03-29T04:09:58.284Z,26.20
2019-03-29T04:10:58.301Z,26.50
2019-03-29T04:11:58.324Z,27.00
2019-03-29T04:12:58.257Z,27.50
2019-03-29T04:13:58.239Z,26.80
2019-03-29T04:14:58.235Z,27.40
2019-03-29T04:15:58.256Z,27.60
2019-03-29T04:16:58.215Z,28.10
2019-03-29T04:17:58.198Z,28.10
2019-03-29T04:18:58.182Z,28.50
2019-03-29T04:19:58.183Z,28.80
2019-03-29T04:20:58.187Z,29.20
2019-03-29T04:21:58.156Z,28.50
2019-03-29T04:22:58.143Z,30.30
2019-03-29T04:23:58.129Z,29.90
2019-03-29T04:24:58.111Z,30.40
2019-03-29T04:25:58.138Z,29.70
2019-03-29T04:26:58.090Z,28.20
2019-03-29T04:27:58.078Z,29.60
2019-03-29T04:29:04.659Z,29.60
2019-03-29T04:29:59.058Z,30.70
2019-03-29T04:30:58.043Z,29.30
2019-03-29T04:31:58.065Z,28.50
2019-03-29T04:32:58.021Z,29.30
2019-03-29T04:33:58.008Z,30.50
2019-03-29T04:34:58.003Z,30.30
2019-03-29T04:35:58.002Z,31.60
2019-03-29T04:36:57.992Z,31.00
2019-03-29T04:37:57.962Z,32.10
2019-03-29T04:38:57.957Z,30.50
2019-03-29T04:40:06.779Z,30.20
2019-03-29T04:40:58.938Z,30.00
2019-03-29T04:41:57.944Z,28.90
2019-03-29T04:42:57.913Z,29.60
2019-03-29T04:43:57.894Z,30.10
2019-03-29T04:44:59.797Z,30.50
2019-03-29T04:45:57.873Z,30.10
2019-03-29T04:46:57.884Z,31.60
2019-03-29T04:47:57.857Z,29.40
2019-03-29T04:48:57.839Z,31.00
2019-03-29T04:49:57.828Z,29.20
2019-03-29T04:50:57.881Z,30.10
2019-03-29T04:51:57.822Z,31.10
2019-03-29T04:52:57.796Z,29.90
2019-03-29T04:53:57.787Z,31.20
2019-03-29T04:54:57.775Z,29.10
2019-03-29T04:55:57.767Z,31.60
2019-03-29T04:56:57.773Z,31.10
2019-03-29T04:57:57.736Z,30.30
2019-03-29T04:58:57.727Z,31.20
2019-03-29T04:59:57.717Z,30.10
2019-03-29T05:00:57.714Z,32.00
2019-03-29T05:01:57.710Z,31.80
2019-03-29T05:02:57.689Z,33.10
2019-03-29T05:03:57.679Z,32.60
2019-03-29T05:04:57.664Z,32.80
2019-03-29T05:05:57.648Z,33.30
2019-03-29T05:06:57.659Z,32.10
2019-03-29T05:07:57.628Z,33.20
2019-03-29T05:08:57.615Z,33.40
2019-03-29T05:09:57.603Z,31.90
2019-03-29T05:10:57.611Z,33.80
2019-03-29T05:11:57.604Z,32.40
2019-03-29T05:12:59.629Z,33.70
2019-03-29T05:13:57.562Z,33.00
2019-03-29T05:14:57.554Z,35.00
2019-03-29T05:15:57.537Z,32.60
2019-03-29T05:16:57.557Z,32.10
2019-03-29T05:17:57.520Z,32.50
2019-03-29T05:18:57.507Z,33.70
2019-03-29T05:19:57.496Z,33.70
2019-03-29T05:20:57.482Z,33.30
2019-03-29T05:21:57.517Z,35.10
2019-03-29T05:22:57.463Z,33.80
2019-03-29T05:23:57.454Z,34.40
2019-03-29T05:24:57.440Z,34.30
2019-03-29T05:25:57.421Z,34.00
2019-03-29T05:26:57.410Z,32.80
2019-03-29T05:27:57.431Z,33.00
2019-03-29T05:28:57.394Z,31.80
2019-03-29T05:29:57.461Z,33.50
2019-03-29T05:30:57.376Z,32.70
2019-03-29T05:31:57.365Z,33.90
2019-03-29T05:32:57.370Z,33.50
2019-03-29T05:33:57.339Z,31.00
2019-03-29T05:34:57.327Z,33.20
2019-03-29T05:35:57.310Z,34.50
2019-03-29T05:36:58.589Z,34.90
2019-03-29T05:37:57.315Z,34.10
2019-03-29T05:38:57.292Z,34.30
2019-03-29T05:39:57.266Z,34.40
2019-03-29T05:40:57.253Z,35.60
2019-03-29T05:41:57.247Z,34.50
2019-03-29T05:42:57.258Z,34.40
2019-03-29T05:43:57.225Z,33.30
2019-03-29T05:44:57.227Z,33.30
2019-03-29T05:45:57.198Z,34.80
2019-03-29T05:46:57.190Z,33.50
2019-03-29T05:47:57.208Z,34.40
2019-03-29T05:48:57.170Z,33.20
2019-03-29T05:49:57.158Z,34.80
2019-03-29T05:50:57.147Z,33.90
2019-03-29T05:51:57.134Z,33.40
2019-03-29T05:52:57.156Z,33.70
2019-03-29T05:53:57.111Z,33.70
2019-03-29T05:54:57.100Z,33.30
2019-03-29T05:55:57.092Z,34.40
2019-03-29T05:56:57.071Z,34.40
2019-03-29T05:57:57.084Z,35.70
2019-03-29T05:58:57.059Z,36.60
2019-03-29T05:59:57.038Z,36.00
2019-03-29T06:00:57.036Z,33.90
2019-03-29T06:01:57.019Z,35.00
2019-03-29T06:02:57.023Z,33.80
2019-03-29T06:03:57.003Z,33.60
2019-03-29T06:04:56.986Z,33.20
2019-03-29T06:05:56.981Z,33.40
2019-03-29T06:06:56.964Z,33.10
2019-03-29T06:07:56.989Z,34.60
2019-03-29T06:08:56.941Z,34.60
2019-03-29T06:09:56.937Z,35.10
2019-03-29T06:10:56.920Z,34.80
2019-03-29T06:11:56.918Z,34.90
2019-03-29T06:12:56.893Z,35.40
2019-03-29T06:13:56.907Z,34.20
2019-03-29T06:14:56.875Z,36.60
2019-03-29T06:15:56.866Z,35.30
2019-03-29T06:16:56.857Z,35.70
2019-03-29T06:17:56.863Z,34.20
2019-03-29T06:18:56.931Z,34.00
2019-03-29T06:19:56.816Z,33.70
2019-03-29T06:20:56.804Z,35.50
2019-03-29T06:21:56.791Z,33.80
2019-03-29T06:22:56.829Z,33.30
2019-03-29T06:23:56.941Z,36.10
2019-03-29T06:24:56.801Z,34.40
2019-03-29T06:25:56.749Z,35.60
2019-03-29T06:26:56.741Z,34.00
2019-03-29T06:27:56.757Z,33.00
2019-03-29T06:28:56.723Z,33.70
2019-03-29T06:29:56.775Z,33.10
2019-03-29T06:30:56.690Z,33.70
2019-03-29T06:31:56.677Z,35.60
2019-03-29T06:32:56.697Z,33.70
2019-03-29T06:33:56.676Z,33.60
2019-03-29T06:34:56.648Z,32.90
2019-03-29T06:35:56.635Z,33.60
2019-03-29T06:36:56.631Z,33.50
2019-03-29T06:37:57.311Z,33.40
2019-03-29T06:38:56.739Z,34.50
2019-03-29T06:39:56.602Z,35.10
2019-03-29T06:41:02.689Z,35.80
2019-03-29T06:41:57.565Z,34.10
2019-03-29T06:42:56.555Z,35.40
2019-03-29T06:43:56.563Z,34.40
2019-03-29T06:44:56.538Z,34.70
2019-03-29T06:45:56.521Z,33.70
2019-03-29T06:46:56.514Z,35.10
2019-03-29T06:47:56.497Z,35.80
2019-03-29T06:48:56.559Z,34.20
2019-03-29T06:49:56.477Z,34.90
2019-03-29T06:50:56.471Z,35.50
2019-03-29T06:51:56.450Z,34.50
2019-03-29T06:52:56.447Z,34.70
2019-03-29T06:53:56.453Z,34.30
2019-03-29T06:54:56.431Z,34.40
2019-03-29T06:55:59.242Z,35.00
2019-03-29T06:56:56.402Z,35.30
2019-03-29T06:57:56.388Z,35.90
2019-03-29T06:58:56.397Z,36.00
2019-03-29T06:59:56.365Z,35.70
2019-03-29T07:01:57.427Z,37.10
2019-03-29T07:02:56.349Z,34.10
2019-03-29T07:03:56.338Z,35.10
2019-03-29T07:04:56.311Z,33.70
2019-03-29T07:05:56.297Z,34.70
2019-03-29T07:06:56.285Z,33.90
2019-03-29T07:07:56.283Z,34.90
2019-03-29T07:08:56.283Z,33.60
2019-03-29T07:09:56.245Z,34.30
2019-03-29T07:10:56.243Z,33.50
2019-03-29T07:11:56.279Z,33.70
2019-03-29T07:12:56.652Z,33.30
2019-03-29T07:13:58.021Z,34.80
2019-03-29T07:14:56.236Z,34.90
2019-03-29T07:15:56.243Z,35.10
2019-03-29T07:16:56.178Z,35.20
2019-03-29T07:17:56.164Z,36.00
2019-03-29T07:18:56.158Z,33.00
2019-03-29T07:19:56.165Z,34.60
2019-03-29T07:20:56.124Z,34.40
2019-03-29T07:21:56.116Z,34.30
2019-03-29T07:22:56.109Z,34.10
2019-03-29T07:23:56.097Z,36.30
2019-03-29T07:24:56.109Z,34.70
2019-03-29T07:25:56.508Z,34.60
2019-03-29T07:26:56.056Z,34.60
2019-03-29T07:27:56.050Z,33.90
2019-03-29T07:28:56.034Z,33.60
2019-03-29T07:29:56.067Z,35.00
2019-03-29T07:30:56.014Z,35.30
2019-03-29T07:31:56.003Z,33.80
2019-03-29T07:32:55.993Z,34.60
2019-03-29T07:33:55.979Z,35.30
2019-03-29T07:34:56.062Z,33.50
2019-03-29T07:35:55.970Z,32.80
2019-03-29T07:36:55.944Z,34.50
2019-03-29T07:37:55.937Z,33.40
2019-03-29T07:38:55.925Z,33.20
2019-03-29T07:39:55.932Z,33.50
2019-03-29T07:40:55.913Z,33.30
2019-03-29T07:41:55.888Z,30.80
2019-03-29T07:42:55.879Z,33.20
2019-03-29T07:43:55.866Z,32.50
2019-03-29T07:44:55.877Z,32.50
2019-03-29T07:45:55.849Z,32.50
2019-03-29T07:46:55.841Z,32.50
2019-03-29T07:47:55.824Z,31.60
2019-03-29T07:48:55.812Z,32.70
2019-03-29T07:49:55.841Z,32.50
2019-03-29T07:50:55.787Z,32.80
2019-03-29T07:51:55.785Z,32.40
2019-03-29T07:52:55.765Z,32.80
2019-03-29T07:53:55.756Z,32.80
2019-03-29T07:54:55.746Z,31.60
2019-03-29T07:55:55.754Z,33.90
2019-03-29T07:56:55.724Z,33.50
2019-03-29T07:57:55.734Z,34.10
2019-03-29T07:58:55.701Z,33.80
2019-03-29T07:59:55.701Z,34.00
2019-03-29T08:00:55.693Z,34.90
2019-03-29T08:01:55.668Z,33.20
2019-03-29T08:02:55.787Z,33.60
2019-03-29T08:03:55.652Z,33.20
2019-03-29T08:04:55.626Z,33.30
2019-03-29T08:05:55.641Z,33.50
2019-03-29T08:06:55.614Z,32.60
2019-03-29T08:07:55.590Z,32.60
2019-03-29T08:08:55.584Z,32.20
2019-03-29T08:09:55.580Z,31.00
2019-03-29T08:10:55.579Z,31.80
2019-03-29T08:11:55.577Z,31.40
2019-03-29T08:12:55.533Z,32.80
2019-03-29T08:13:55.533Z,32.10
2019-03-29T08:14:55.527Z,31.10
2019-03-29T08:15:55.539Z,30.80
2019-03-29T08:16:55.495Z,32.60
2019-03-29T08:17:55.480Z,31.10
2019-03-29T08:18:55.470Z,31.30
2019-03-29T08:20:13.357Z,31.80
2019-03-29T08:20:56.467Z,30.90
2019-03-29T08:21:57.792Z,30.10
2019-03-29T08:22:55.423Z,30.30
2019-03-29T08:23:55.423Z,30.40
2019-03-29T08:24:55.404Z,30.60
2019-03-29T08:25:55.426Z,30.70
2019-03-29T08:26:55.380Z,31.20
2019-03-29T08:27:55.370Z,31.60
2019-03-29T08:28:55.357Z,30.70
2019-03-29T08:29:55.351Z,29.50
2019-03-29T08:30:55.369Z,29.90
2019-03-29T08:31:55.807Z,30.60
2019-03-29T08:32:55.311Z,31.00
2019-03-29T08:33:55.305Z,29.80
2019-03-29T08:34:55.312Z,29.90
2019-03-29T08:35:55.370Z,29.10
2019-03-29T08:36:55.283Z,28.80
2019-03-29T08:37:55.254Z,29.20
2019-03-29T08:38:55.246Z,28.80
2019-03-29T08:39:56.589Z,28.30
2019-03-29T08:40:55.247Z,29.20
2019-03-29T08:42:00.366Z,28.90
2019-03-29T08:42:56.203Z,29.50
2019-03-29T08:43:55.189Z,29.00
2019-03-29T08:44:55.186Z,28.10
2019-03-29T08:45:57.524Z,27.50
2019-03-29T08:46:55.154Z,26.90
2019-03-29T08:47:55.147Z,28.20
2019-03-29T08:48:55.209Z,28.40
2019-03-29T08:49:55.120Z,28.00
2019-03-29T08:50:55.125Z,26.70
2019-03-29T08:51:55.101Z,26.50
2019-03-29T08:52:55.096Z,27.00
2019-03-29T08:53:55.083Z,28.10
2019-03-29T08:54:55.068Z,27.30
2019-03-29T08:55:55.075Z,25.30
2019-03-29T08:56:55.085Z,25.10
2019-03-29T08:57:55.042Z,24.80
2019-03-29T08:58:55.025Z,25.60
2019-03-29T08:59:55.009Z,25.70
2019-03-29T09:00:55.031Z,25.50
2019-03-29T09:01:54.994Z,25.20
2019-03-29T09:02:54.972Z,25.30
2019-03-29T09:04:04.542Z,25.90
2019-03-29T09:04:55.961Z,25.20
2019-03-29T09:05:54.966Z,24.80
2019-03-29T09:06:54.954Z,24.20
2019-03-29T09:07:54.915Z,24.40
2019-03-29T09:08:54.908Z,23.70
2019-03-29T09:09:54.903Z,24.60
2019-03-29T09:10:54.892Z,24.70
2019-03-29T09:11:54.893Z,25.00
2019-03-29T09:12:54.869Z,26.00
2019-03-29T09:13:54.848Z,26.10
2019-03-29T09:14:54.832Z,25.10
2019-03-29T09:15:54.831Z,26.30
2019-03-29T09:16:54.837Z,26.10
2019-03-29T09:17:54.800Z,26.30
2019-03-29T09:18:54.795Z,25.60
2019-03-29T09:19:54.780Z,25.20
2019-03-29T09:20:54.773Z,26.00
2019-03-29T09:21:54.783Z,24.90
2019-03-29T09:22:54.789Z,25.10
2019-03-29T09:23:54.760Z,24.00
2019-03-29T09:24:54.968Z,24.80
2019-03-29T09:25:54.734Z,24.60
2019-03-29T09:26:54.737Z,24.70
2019-03-29T09:27:54.694Z,23.40
2019-03-29T09:28:54.739Z,23.80
2019-03-29T09:29:54.696Z,23.30
2019-03-29T09:30:56.624Z,23.90
2019-03-29T09:31:54.712Z,23.40
2019-03-29T09:32:54.660Z,24.20
2019-03-29T09:33:54.618Z,23.40
2019-03-29T09:34:54.616Z,22.20
2019-03-29T09:35:54.602Z,23.40
2019-03-29T09:36:54.624Z,21.50
2019-03-29T09:37:56.490Z,22.00
2019-03-29T09:38:54.564Z,21.20
2019-03-29T09:39:54.555Z,20.70
2019-03-29T09:40:58.856Z,21.40
2019-03-29T09:41:54.552Z,21.10
2019-03-29T09:43:06.718Z,21.80
2019-03-29T09:43:55.515Z,20.20
2019-03-29T09:44:54.496Z,21.60
2019-03-29T09:45:54.482Z,20.60
2019-03-29T09:46:54.491Z,20.20
2019-03-29T09:47:55.888Z,20.50
2019-03-29T09:48:54.562Z,21.60
2019-03-29T09:49:54.456Z,21.70
2019-03-29T09:50:54.435Z,21.00
2019-03-29T09:51:54.442Z,20.30
2019-03-29T09:52:54.410Z,20.00
2019-03-29T09:53:57.668Z,20.10
2019-03-29T09:54:54.400Z,21.40
2019-03-29T09:55:54.386Z,18.80
2019-03-29T09:56:54.395Z,19.10
2019-03-29T09:57:54.345Z,19.90
2019-03-29T09:58:54.394Z,20.50
2019-03-29T09:59:54.334Z,21.70
2019-03-29T10:00:54.319Z,20.30
2019-03-29T10:01:54.478Z,21.30
2019-03-29T10:02:54.499Z,20.80
2019-03-29T10:03:54.369Z,21.80
2019-03-29T10:04:54.328Z,18.90
2019-03-29T10:05:54.270Z,18.00
2019-03-29T10:06:54.255Z,18.40
2019-03-29T10:07:54.256Z,18.50
2019-03-29T10:08:54.230Z,18.70
2019-03-29T10:09:54.216Z,18.70
2019-03-29T10:10:54.237Z,18.10
2019-03-29T10:11:54.214Z,17.30
2019-03-29T10:12:54.221Z,18.40
2019-03-29T10:13:54.180Z,17.90
2019-03-29T10:14:54.173Z,17.70
2019-03-29T10:15:54.221Z,17.20
2019-03-29T10:16:54.151Z,17.00
2019-03-29T10:17:54.161Z,16.40
2019-03-29T10:18:54.122Z,16.10
2019-03-29T10:19:54.128Z,15.80
2019-03-29T10:20:54.091Z,15.50
2019-03-29T10:21:54.082Z,15.20
2019-03-29T10:22:54.090Z,15.60
2019-03-29T10:23:54.099Z,14.40
2019-03-29T10:24:54.052Z,15.00
2019-03-29T10:25:54.036Z,15.00
2019-03-29T10:26:54.021Z,15.10
2019-03-29T10:27:54.030Z,14.60
2019-03-29T10:28:54.028Z,14.20
2019-03-29T10:29:53.995Z,14.70
2019-03-29T10:30:53.973Z,13.90
2019-03-29T10:31:54.018Z,15.00
2019-03-29T10:32:55.464Z,14.80
2019-03-29T10:33:54.011Z,14.50
2019-03-29T10:34:53.926Z,14.40
2019-03-29T10:35:53.931Z,13.80
2019-03-29T10:36:53.937Z,14.40
2019-03-29T10:37:53.931Z,14.70
2019-03-29T10:38:53.892Z,15.30
2019-03-29T10:39:53.874Z,14.20
2019-03-29T10:40:53.858Z,13.90
2019-03-29T10:41:53.858Z,14.20
2019-03-29T10:42:57.988Z,13.50
2019-03-29T10:43:53.834Z,15.50
2019-03-29T10:44:53.830Z,13.40
2019-03-29T10:45:53.800Z,14.10
2019-03-29T10:46:53.801Z,14.00
2019-03-29T10:47:53.810Z,13.30
2019-03-29T10:48:53.773Z,13.60
2019-03-29T10:49:53.762Z,13.60
2019-03-29T10:50:53.746Z,14.10
2019-03-29T10:51:53.736Z,13.70
2019-03-29T10:52:53.757Z,12.60
2019-03-29T10:53:53.732Z,13.50
2019-03-29T10:54:53.698Z,12.20
2019-03-29T10:55:53.705Z,11.70
2019-03-29T10:56:53.682Z,10.90
2019-03-29T10:57:53.672Z,11.50
2019-03-29T10:58:53.680Z,11.20
2019-03-29T10:59:53.658Z,9.70
2019-03-29T11:00:53.639Z,9.30
2019-03-29T11:01:53.625Z,9.20
2019-03-29T11:02:53.612Z,8.80
2019-03-29T11:03:53.618Z,8.90
2019-03-29T11:04:53.588Z,9.40
2019-03-29T11:05:53.574Z,9.20
2019-03-29T11:06:53.571Z,10.10
2019-03-29T11:07:53.561Z,8.60
2019-03-29T11:08:53.562Z,8.30
2019-03-29T11:09:53.530Z,8.80
2019-03-29T11:10:53.526Z,9.00
2019-03-29T11:11:53.516Z,7.60
2019-03-29T11:12:53.493Z,6.10
2019-03-29T11:13:56.540Z,4.60
2019-03-29T11:14:53.478Z,5.60
2019-03-29T11:15:53.463Z,7.40
2019-03-29T11:16:53.460Z,6.50
2019-03-29T11:17:53.445Z,7.50
2019-03-29T11:18:53.446Z,8.10
2019-03-29T11:19:53.423Z,6.90
2019-03-29T11:20:53.412Z,6.50
2019-03-29T11:21:53.411Z,6.30
2019-03-29T11:22:53.385Z,6.20
2019-03-29T11:23:53.402Z,5.70
2019-03-29T11:24:53.365Z,6.10
2019-03-29T11:25:53.349Z,5.60
2019-03-29T11:26:53.351Z,5.10
2019-03-29T11:27:53.325Z,5.80
2019-03-29T11:28:53.331Z,4.70
2019-03-29T11:29:53.340Z,4.20
2019-03-29T11:30:53.292Z,3.30
2019-03-29T11:31:53.285Z,3.40
2019-03-29T11:32:53.277Z,3.40
2019-03-29T11:33:53.271Z,3.20
2019-03-29T11:34:53.256Z,2.80
2019-03-29T11:35:53.231Z,2.50
2019-03-29T11:36:53.235Z,2.40
2019-03-29T11:37:53.221Z,2.80
2019-03-29T11:38:53.247Z,2.90
2019-03-29T11:39:53.201Z,2.80
2019-03-29T11:40:53.248Z,2.90
2019-03-29T11:41:53.165Z,4.10
2019-03-29T11:42:53.154Z,3.80
2019-03-29T11:43:53.177Z,3.90
2019-03-29T11:44:53.131Z,3.30
2019-03-29T11:45:53.131Z,3.90
2019-03-29T11:46:53.111Z,3.40
2019-03-29T11:48:06.888Z,3.70
2019-03-29T11:48:54.121Z,4.00
2019-03-29T11:49:53.079Z,3.60
2019-03-29T11:50:53.063Z,4.00
2019-03-29T11:51:53.071Z,3.70
2019-03-29T11:52:53.042Z,4.00
2019-03-29T11:53:53.054Z,3.90
2019-03-29T11:54:53.025Z,4.00
2019-03-29T11:55:53.037Z,4.30
2019-03-29T11:56:53.005Z,4.60
2019-03-29T11:57:55.715Z,4.40
2019-03-29T11:58:52.994Z,4.60
2019-03-29T11:59:52.992Z,4.10
2019-03-29T12:00:52.962Z,4.20
2019-03-29T12:01:52.941Z,4.00
2019-03-29T12:02:52.935Z,4.10
2019-03-29T12:03:52.930Z,3.70
2019-03-29T12:04:52.932Z,4.00
2019-03-29T12:05:52.890Z,3.90
2019-03-29T12:06:52.889Z,4.10
2019-03-29T12:07:52.873Z,4.20
2019-03-29T12:08:56.896Z,4.70
2019-03-29T12:09:52.897Z,3.90
2019-03-29T12:10:52.839Z,4.40
2019-03-29T12:11:52.825Z,4.10
2019-03-29T12:12:52.816Z,3.90
2019-03-29T12:13:52.820Z,4.20
2019-03-29T12:14:52.832Z,5.00
2019-03-29T12:15:52.796Z,4.30
2019-03-29T12:16:52.777Z,4.50
2019-03-29T12:17:52.782Z,4.70
2019-03-29T12:18:52.753Z,4.30
2019-03-29T12:19:52.765Z,4.20
2019-03-29T12:20:54.388Z,4.60
2019-03-29T12:21:52.730Z,4.50
2019-03-29T12:22:52.713Z,4.50
2019-03-29T12:23:52.711Z,4.20
2019-03-29T12:24:52.701Z,4.50
2019-03-29T12:25:52.677Z,4.00
2019-03-29T12:26:55.003Z,4.00
2019-03-29T12:27:52.686Z,4.20
2019-03-29T12:28:52.642Z,4.30
2019-03-29T12:29:52.651Z,4.50
2019-03-29T12:30:52.629Z,5.00
2019-03-29T12:31:52.605Z,4.30
2019-03-29T12:32:52.607Z,4.60
2019-03-29T12:33:52.595Z,4.30
2019-03-29T12:34:52.601Z,4.40
2019-03-29T12:35:52.582Z,4.20
2019-03-29T12:36:52.547Z,4.50
2019-03-29T12:37:52.626Z,4.80
2019-03-29T12:38:52.528Z,4.60
2019-03-29T12:39:52.610Z,4.80
2019-03-29T12:40:52.502Z,4.30
2019-03-29T12:41:52.498Z,4.20
2019-03-29T12:42:52.473Z,4.00
2019-03-29T12:43:55.939Z,4.60
2019-03-29T12:44:52.465Z,4.00
2019-03-29T12:45:52.437Z,4.40
2019-03-29T12:46:52.433Z,4.30
2019-03-29T12:47:52.421Z,4.20
2019-03-29T12:48:52.411Z,4.10
2019-03-29T12:49:52.420Z,4.20
2019-03-29T12:50:52.394Z,4.50
2019-03-29T12:51:52.383Z,4.60
2019-03-29T12:52:52.367Z,4.10
2019-03-29T12:53:52.359Z,4.10
2019-03-29T12:54:52.360Z,4.10
2019-03-29T12:55:52.331Z,4.80
2019-03-29T12:56:52.317Z,4.40